Time;durP1;ratioP1;P1;durP2;ratioP2;P2;SDS_P1;SDS_P2;PMS_P1;PMS_P2;Temp;Humidity;BMP_temperature;BMP_pressure;BME280_temperature;BME280_humidity;BME280_pressure;Samples;Min_cycle;Max_cycle;Signal;HPM_P1;HPM_P2
2021/04/29 00:00:17;;;;;;;13.80;8.35;;;;;;;11.89;65.73;99913.00;5030607;28;20029;-22
2021/04/29 00:02:43;;;;;;;10.88;7.20;;;;;;;11.57;66.88;99915.91;5030286;28;20033;-22
2021/04/29 00:05:10;;;;;;;13.75;7.75;;;;;;;11.73;66.88;99924.31;5030298;28;20037;-22
2021/04/29 00:07:36;;;;;;;17.50;7.90;;;;;;;12.03;65.43;99919.75;5029497;28;20026;-21
2021/04/29 00:10:04;;;;;;;12.10;7.72;;;;;;;11.82;65.84;99902.38;5030764;28;20107;-20
2021/04/29 00:12:30;;;;;;;13.57;8.07;;;;;;;11.89;65.73;99913.00;5030588;28;20033;-22
2021/04/29 00:14:55;;;;;;;14.68;8.23;;;;;;;11.69;65.91;99902.59;5030352;28;20052;-20
2021/04/29 00:17:21;;;;;;;16.65;8.98;;;;;;;11.88;65.82;99919.34;5030669;28;20137;-21
2021/04/29 00:19:46;;;;;;;15.65;7.95;;;;;;;11.89;65.35;99913.00;5030251;28;20170;-21
2021/04/29 00:22:12;;;;;;;13.18;8.13;;;;;;;11.87;65.72;99915.06;5030360;28;20033;-21
2021/04/29 00:24:37;;;;;;;12.27;7.93;;;;;;;12.09;64.90;99920.66;5030352;28;20040;-21
2021/04/29 00:27:03;;;;;;;14.15;8.73;;;;;;;12.05;64.86;99922.16;5030296;28;20045;-21
2021/04/29 00:29:29;;;;;;;10.90;7.57;;;;;;;12.42;63.67;99925.44;5030212;28;20032;-21
2021/04/29 00:31:54;;;;;;;12.18;7.78;;;;;;;12.59;63.03;99927.38;5029968;28;20116;-22
2021/04/29 00:34:20;;;;;;;13.63;7.88;;;;;;;12.56;62.90;99922.47;5030348;28;20029;-22
2021/04/29 00:36:45;;;;;;;13.05;7.60;;;;;;;11.89;64.48;99902.31;5029870;28;20112;-22
2021/04/29 00:39:11;;;;;;;12.85;7.90;;;;;;;12.01;65.18;99924.50;5029929;28;20026;-22
2021/04/29 00:41:36;;;;;;;14.95;7.72;;;;;;;12.28;63.83;99932.06;5029909;28;20087;-22
2021/04/29 00:44:02;;;;;;;15.32;7.43;;;;;;;11.94;65.54;99914.97;5029775;28;20449;-22
2021/04/29 00:46:28;;;;;;;11.80;8.40;;;;;;;12.02;64.90;99918.09;5029669;28;20414;-21
2021/04/29 00:48:53;;;;;;;14.35;8.75;;;;;;;12.08;64.69;99921.72;5029385;28;20060;-21
2021/04/29 00:51:20;;;;;;;13.55;8.77;;;;;;;11.80;65.24;99915.13;5029827;28;20064;-21
2021/04/29 00:53:47;;;;;;;12.02;8.07;;;;;;;11.80;65.78;99906.31;5029699;28;20116;-21
2021/04/29 00:56:13;;;;;;;10.90;8.05;;;;;;;11.58;65.67;99896.16;5029815;28;20029;-21
2021/04/29 00:58:38;;;;;;;10.88;8.27;;;;;;;11.81;64.54;99883.88;5029451;28;20397;-21
2021/04/29 01:01:04;;;;;;;13.40;8.00;;;;;;;12.24;63.85;99925.56;5029356;28;20485;-22
2021/04/29 01:03:35;;;;;;;11.90;8.43;;;;;;;11.99;63.83;99907.88;5029357;28;20029;-21
2021/04/29 01:06:22;;;;;;;12.63;8.25;;;;;;;12.27;63.31;99903.69;5028579;28;20128;-21
2021/04/29 01:09:02;;;;;;;14.20;8.70;;;;;;;12.30;62.84;99903.22;5027016;28;20978;-22
2021/04/29 01:11:31;;;;;;;14.00;8.57;;;;;;;12.45;62.95;99927.63;5027920;28;20036;-22
2021/04/29 01:13:58;;;;;;;15.30;8.48;;;;;;;12.64;61.98;99912.22;5011914;28;20057;-21
2021/04/29 01:16:24;;;;;;;13.43;9.13;;;;;;;12.32;62.81;99921.69;5028239;28;20033;-22
2021/04/29 01:18:51;;;;;;;13.43;8.70;;;;;;;12.01;63.85;99921.84;5027807;28;20035;-21
2021/04/29 01:21:17;;;;;;;11.90;8.63;;;;;;;12.34;62.64;99915.09;5027948;28;20045;-22
2021/04/29 01:23:57;;;;;;;15.52;8.35;;;;;;;11.90;64.01;99922.63;5028905;28;20029;-22
2021/04/29 01:26:32;;;;;;;13.70;8.23;;;;;;;11.74;64.47;99913.38;5028929;28;20057;-21
2021/04/29 01:29:00;;;;;;;14.75;8.35;;;;;;;11.42;66.22;99899.50;5029073;28;20033;-22
2021/04/29 01:31:30;;;;;;;10.88;8.05;;;;;;;11.19;66.43;99887.72;5028285;28;20037;-22
2021/04/29 01:33:57;;;;;;;11.00;8.35;;;;;;;11.20;66.16;99878.69;5028152;28;20039;-21
2021/04/29 01:36:22;;;;;;;12.05;7.93;;;;;;;10.75;67.83;99888.94;5011326;28;20045;-20
2021/04/29 01:38:48;;;;;;;13.63;8.82;;;;;;;10.95;67.82;99896.66;5010846;28;20029;-21
2021/04/29 01:41:14;;;;;;;12.50;8.10;;;;;;;10.77;67.44;99900.19;5027642;28;20405;-22
2021/04/29 01:43:39;;;;;;;14.55;7.93;;;;;;;11.07;66.25;99905.53;5029044;28;20025;-21
2021/04/29 01:46:05;;;;;;;13.73;9.57;;;;;;;11.44;64.64;99905.44;5010955;28;20033;-22
2021/04/29 01:48:30;;;;;;;12.38;8.60;;;;;;;11.47;64.85;99910.31;5027399;28;20057;-22
2021/04/29 01:50:56;;;;;;;13.20;8.40;;;;;;;11.60;63.77;99918.13;5010627;28;20030;-21
2021/04/29 01:53:24;;;;;;;13.77;9.00;;;;;;;11.64;63.92;99915.81;5027165;28;20571;-22
2021/04/29 01:55:50;;;;;;;14.03;8.87;;;;;;;11.76;62.76;99924.66;5028389;28;20489;-22
2021/04/29 01:58:15;;;;;;;12.88;9.18;;;;;;;11.60;63.14;99926.13;5027424;28;20283;-22
2021/04/29 02:00:41;;;;;;;13.23;8.63;;;;;;;11.39;64.06;99918.66;5028231;28;20034;-22
2021/04/29 02:03:06;;;;;;;17.73;8.93;;;;;;;11.34;64.01;99921.19;5028290;28;20164;-21
2021/04/29 02:05:32;;;;;;;12.60;8.13;;;;;;;11.35;63.50;99912.16;5028239;28;20104;-20
2021/04/29 02:07:58;;;;;;;13.18;7.65;;;;;;;11.33;63.29;99916.91;5028543;28;20033;-21
2021/04/29 02:10:23;;;;;;;8.98;6.35;;;;;;;11.04;63.83;99916.69;5028593;28;20046;-22
2021/04/29 02:12:55;;;;;;;11.50;7.65;;;;;;;11.18;63.55;99918.13;5010391;28;20545;-21
2021/04/29 02:15:29;;;;;;;11.77;7.90;;;;;;;11.12;63.28;99907.56;5028163;28;20040;-21
2021/04/29 02:18:11;;;;;;;12.05;6.97;;;;;;;11.33;62.61;99908.91;5027292;28;20030;-22
2021/04/29 02:20:40;;;;;;;15.00;7.63;;;;;;;11.00;63.38;99902.97;5026578;28;20036;-22
2021/04/29 02:23:10;;;;;;;16.48;8.18;;;;;;;10.95;63.70;99908.19;5027938;28;20116;-22
2021/04/29 02:25:36;;;;;;;11.45;7.28;;;;;;;11.04;63.51;99924.69;5027941;28;20401;-22
2021/04/29 02:28:02;;;;;;;11.75;7.40;;;;;;;11.15;62.64;99915.09;5026726;28;20025;-22
2021/04/29 02:30:28;;;;;;;15.02;7.20;;;;;;;11.11;62.33;99901.38;5010528;28;20039;-22
2021/04/29 02:32:54;;;;;;;10.98;7.30;;;;;;;11.07;62.84;99908.19;5027387;28;20045;-21
2021/04/29 02:35:19;;;;;;;11.15;7.50;;;;;;;10.97;62.95;99907.94;5026770;28;20036;-22
2021/04/29 02:37:47;;;;;;;12.40;7.80;;;;;;;11.00;62.69;99910.97;5026599;28;20108;-21
2021/04/29 02:40:13;;;;;;;13.63;7.13;;;;;;;11.05;62.81;99923.63;5027954;28;20087;-21
2021/04/29 02:42:39;;;;;;;11.70;7.22;;;;;;;11.13;62.16;99909.97;5026006;28;20041;-22
2021/04/29 02:45:09;;;;;;;10.43;6.82;;;;;;;10.91;62.85;99915.00;5027612;28;20471;-21
2021/04/29 02:47:46;;;;;;;14.63;6.97;;;;;;;10.43;64.42;99921.09;5027312;28;20095;-22
2021/04/29 02:50:12;;;;;;;9.43;7.13;;;;;;;10.52;64.00;99924.25;5027979;28;20194;-22
2021/04/29 02:52:38;;;;;;;12.15;7.32;;;;;;;10.57;63.85;99932.44;5026110;28;20021;-22
2021/04/29 02:55:07;;;;;;;12.50;7.63;;;;;;;10.75;62.59;99915.63;5026333;28;20056;-21
2021/04/29 02:57:33;;;;;;;12.85;7.32;;;;;;;10.58;63.47;99918.03;5026412;28;20030;-22
2021/04/29 02:59:59;;;;;;;23.40;8.98;;;;;;;10.75;63.59;99944.94;5025853;28;20125;-22
2021/04/29 03:02:24;;;;;;;10.75;7.35;;;;;;;10.59;63.93;99951.69;5027043;28;20113;-22
2021/04/29 03:04:50;;;;;;;14.40;8.75;;;;;;;10.79;62.75;99952.28;5027160;28;20045;-21
2021/04/29 03:07:15;;;;;;;13.68;8.65;;;;;;;10.86;61.99;99946.84;5027292;28;20549;-22
2021/04/29 03:09:41;;;;;;;11.20;7.63;;;;;;;10.72;62.58;99940.84;5027434;28;20076;-22
2021/04/29 03:12:07;;;;;;;13.23;7.88;;;;;;;9.85;64.77;99941.66;5027342;28;20040;-22
2021/04/29 03:14:32;;;;;;;12.90;9.05;;;;;;;9.83;64.92;99926.94;5026836;28;20071;-21
2021/04/29 03:16:58;;;;;;;15.20;9.23;;;;;;;9.64;64.86;99944.69;5027010;28;20029;-22
2021/04/29 03:19:23;;;;;;;17.35;9.48;;;;;;;9.69;65.86;99952.84;5027517;28;20044;-21
2021/04/29 03:21:50;;;;;;;25.48;10.30;;;;;;;9.76;65.61;99952.78;5027563;28;20044;-20
2021/04/29 03:24:16;;;;;;;17.85;10.35;;;;;;;9.71;65.94;99961.44;5027326;28;20508;-21
2021/04/29 03:26:41;;;;;;;17.23;9.73;;;;;;;9.91;64.56;99945.31;5027157;28;20033;-22
2021/04/29 03:29:07;;;;;;;16.27;8.77;;;;;;;10.13;63.62;99969.72;5027014;28;20044;-21
2021/04/29 03:31:32;;;;;;;60.88;25.55;;;;;;;10.18;63.23;99961.06;5028247;28;20486;-21
2021/04/29 03:33:58;;;;;;;19.33;10.40;;;;;;;9.35;66.07;99972.72;5031487;28;20504;-22
2021/04/29 03:36:23;;;;;;;15.90;9.18;;;;;;;9.41;66.22;99974.53;5031239;28;20033;-22
2021/04/29 03:38:49;;;;;;;21.58;9.75;;;;;;;9.64;65.27;99988.13;5031071;28;20033;-22
2021/04/29 03:41:14;;;;;;;20.15;10.40;;;;;;;9.76;64.97;99990.09;5031059;28;20044;-21
2021/04/29 03:43:40;;;;;;;22.83;11.85;;;;;;;9.22;66.98;99985.06;5030836;28;20041;-22
2021/04/29 03:46:06;;;;;;;21.55;11.88;;;;;;;9.53;66.00;99990.63;5030756;28;20029;-22
2021/04/29 03:48:32;;;;;;;21.17;12.80;;;;;;;9.88;64.30;99976.91;5029182;28;20061;-19
2021/04/29 03:50:58;;;;;;;27.35;16.33;;;;;;;10.12;63.92;99989.41;5031074;28;20029;-21
2021/04/29 03:53:24;;;;;;;22.73;12.70;;;;;;;9.73;65.15;99998.50;5030780;28;20030;-21
2021/04/29 03:55:49;;;;;;;21.25;12.85;;;;;;;9.35;67.26;99999.34;5030671;28;20401;-21
2021/04/29 03:58:15;;;;;;;18.58;11.18;;;;;;;9.23;67.69;99991.19;5030756;28;20087;-21
2021/04/29 04:00:40;;;;;;;13.85;7.85;;;;;;;9.02;69.00;99994.97;5030414;28;20041;-21
2021/04/29 04:03:06;;;;;;;12.38;7.90;;;;;;;8.84;69.64;99992.97;5031025;28;20044;-22
2021/04/29 04:05:31;;;;;;;12.20;7.97;;;;;;;9.47;67.39;99992.31;5030494;28;20040;-22
2021/04/29 04:07:57;;;;;;;23.13;9.48;;;;;;;10.10;65.68;100002.13;5030730;28;20038;-21
2021/04/29 04:10:22;;;;;;;18.45;11.27;;;;;;;10.37;65.02;99991.28;5030620;28;20493;-21
2021/04/29 04:12:48;;;;;;;34.88;19.33;;;;;;;10.30;64.63;99986.00;5030561;28;20795;-21
2021/04/29 04:15:14;;;;;;;37.72;21.90;;;;;;;10.71;63.57;100003.25;5029041;28;20705;-21
2021/04/29 04:17:39;;;;;;;32.90;18.85;;;;;;;10.90;63.35;100005.94;5030503;28;20413;-22
2021/04/29 04:20:05;;;;;;;37.53;19.88;;;;;;;10.45;65.38;99999.81;5030619;28;20131;-21
2021/04/29 04:22:31;;;;;;;27.30;17.10;;;;;;;10.48;65.97;100005.72;5029884;28;20056;-19
2021/04/29 04:24:56;;;;;;;34.40;19.42;;;;;;;10.36;66.00;100013.63;5030198;28;20413;-22
2021/04/29 04:27:22;;;;;;;30.70;18.10;;;;;;;10.51;64.76;100011.44;5030002;28;20033;-21
2021/04/29 04:29:47;;;;;;;40.05;18.60;;;;;;;10.77;64.39;100021.03;5029990;28;20094;-21
2021/04/29 04:32:13;;;;;;;31.48;17.27;;;;;;;10.54;65.26;100026.19;5030310;28;20036;-21
2021/04/29 04:34:39;;;;;;;29.90;16.70;;;;;;;10.60;65.50;100027.97;5029966;28;20083;-21
2021/04/29 04:37:04;;;;;;;51.53;21.20;;;;;;;10.67;65.66;100028.75;5030340;28;20042;-21
2021/04/29 04:39:30;;;;;;;15.43;8.48;;;;;;;10.74;65.25;100029.47;5030235;28;20421;-21
2021/04/29 04:41:55;;;;;;;13.43;8.43;;;;;;;11.06;64.54;100030.16;5029905;28;20053;-21
2021/04/29 04:44:21;;;;;;;14.52;8.55;;;;;;;11.21;63.95;100026.28;5029749;28;20128;-21
2021/04/29 04:46:46;;;;;;;10.25;7.20;;;;;;;11.22;64.62;100030.59;5029976;28;20092;-21
2021/04/29 04:49:12;;;;;;;11.15;8.23;;;;;;;11.27;64.85;100028.88;5029808;28;20462;-22
2021/04/29 04:51:38;;;;;;;14.43;7.95;;;;;;;11.66;63.81;100039.28;5029785;28;20484;-22
2021/04/29 04:54:03;;;;;;;12.70;7.63;;;;;;;11.68;63.71;100042.53;5029708;28;20087;-21
2021/04/29 04:56:29;;;;;;;12.35;8.02;;;;;;;11.77;63.84;100035.00;5029690;28;20398;-21
2021/04/29 04:58:55;;;;;;;12.35;8.27;;;;;;;12.00;63.73;100037.78;5029303;28;20040;-21
2021/04/29 05:01:21;;;;;;;11.43;8.35;;;;;;;12.16;63.31;100046.22;5029903;28;20031;-22
2021/04/29 05:03:48;;;;;;;12.23;7.95;;;;;;;11.99;63.68;100040.69;5029565;28;20025;-22
2021/04/29 05:06:15;;;;;;;13.63;8.93;;;;;;;12.36;63.61;100044.03;5029595;28;20061;-22
2021/04/29 05:08:40;;;;;;;13.73;8.95;;;;;;;12.49;62.40;100039.50;5029198;28;20033;-21
2021/04/29 05:11:06;;;;;;;14.77;9.45;;;;;;;12.76;62.44;100056.69;5029263;28;20036;-22
2021/04/29 05:13:31;;;;;;;12.32;8.73;;;;;;;13.18;61.04;100055.75;5029282;28;20509;-21
2021/04/29 05:15:57;;;;;;;11.88;8.52;;;;;;;13.13;60.55;100056.44;5029942;28;20040;-21
2021/04/29 05:18:25;;;;;;;14.77;8.60;;;;;;;13.49;59.95;100059.88;5029681;28;20037;-20
2021/04/29 05:20:50;;;;;;;;;;;;;;;13.53;58.63;100058.34;5029559;28;20405;-21
2021/04/29 05:23:16;;;;;;;17.17;8.55;;;;;;;13.51;59.51;100063.13;5029251;28;20373;-21
2021/04/29 05:25:41;;;;;;;13.95;8.80;;;;;;;13.46;59.25;100063.84;5029181;28;20901;-22
2021/04/29 05:28:07;;;;;;;13.55;9.13;;;;;;;13.00;60.36;100051.34;5028937;28;20029;-21
2021/04/29 05:30:32;;;;;;;11.45;8.00;;;;;;;12.85;61.50;100054.47;5029149;28;20095;-20
2021/04/29 05:32:58;;;;;;;13.40;8.27;;;;;;;13.14;61.56;100063.44;5029350;28;20097;-21
2021/04/29 05:35:24;;;;;;;13.02;8.07;;;;;;;13.35;60.88;100055.84;5029115;28;20033;-22
2021/04/29 05:37:49;;;;;;;14.88;9.02;;;;;;;12.94;62.42;100061.13;5029029;28;20128;-22
2021/04/29 05:40:15;;;;;;;18.13;8.77;;;;;;;12.58;63.54;100048.78;5028967;28;20041;-21
2021/04/29 05:42:41;;;;;;;10.40;8.07;;;;;;;12.84;62.59;100064.38;5028482;28;20474;-21
2021/04/29 05:45:07;;;;;;;13.18;8.13;;;;;;;12.57;63.71;100052.53;5028759;28;20486;-22
2021/04/29 05:47:33;;;;;;;15.00;8.35;;;;;;;12.33;65.80;100067.72;5027294;28;20021;-22
2021/04/29 05:49:58;;;;;;;15.20;9.35;;;;;;;12.11;66.35;100075.47;5028486;28;20406;-22
2021/04/29 05:52:24;;;;;;;11.65;8.60;;;;;;;12.12;67.43;100077.13;5028785;28;20049;-21
2021/04/29 05:54:50;;;;;;;13.45;8.70;;;;;;;12.14;67.25;100059.00;5027889;28;20099;-21
2021/04/29 05:57:15;;;;;;;13.60;8.30;;;;;;;12.13;66.78;100084.06;5028466;28;20033;-21
2021/04/29 05:59:41;;;;;;;14.80;8.30;;;;;;;12.23;67.73;100078.97;5028742;28;20029;-21
2021/04/29 06:02:06;;;;;;;15.65;10.88;;;;;;;12.76;67.03;100080.78;5028725;28;20032;-22
2021/04/29 06:04:32;;;;;;;19.63;11.68;;;;;;;12.96;66.78;100077.75;5028424;28;20144;-21
2021/04/29 06:06:58;;;;;;;14.35;8.80;;;;;;;13.37;62.95;100077.84;5027079;28;20033;-21
2021/04/29 06:09:23;;;;;;;16.88;11.02;;;;;;;13.65;62.77;100083.22;5028350;28;20037;-20
2021/04/29 06:11:49;;;;;;;13.30;8.10;;;;;;;12.91;63.73;100069.59;5028420;28;20175;-21
2021/04/29 06:14:14;;;;;;;19.60;9.80;;;;;;;13.35;63.27;100080.75;5028372;28;20686;-22
2021/04/29 06:16:40;;;;;;;12.63;8.77;;;;;;;13.68;62.47;100086.47;5027980;28;20057;-22
2021/04/29 06:19:06;;;;;;;12.65;9.23;;;;;;;13.21;63.70;100080.16;5028077;28;20037;-22
2021/04/29 06:21:32;;;;;;;12.65;7.97;;;;;;;13.09;64.49;100084.72;5028075;28;20111;-21
2021/04/29 06:23:57;;;;;;;12.02;7.95;;;;;;;13.81;62.91;100096.91;5027981;28;20444;-21
2021/04/29 06:26:23;;;;;;;12.48;7.88;;;;;;;13.79;62.81;100091.81;5027978;28;20037;-21
2021/04/29 06:28:49;;;;;;;16.25;7.38;;;;;;;13.67;61.94;100083.00;5027857;28;20037;-22
2021/04/29 06:31:14;;;;;;;10.95;6.68;;;;;;;13.73;61.50;100098.13;5027916;28;20033;-21
2021/04/29 06:33:40;;;;;;;16.75;10.27;;;;;;;13.66;61.65;100076.00;5028013;28;20080;-21
2021/04/29 06:36:06;;;;;;;12.25;7.10;;;;;;;13.83;61.26;100086.75;5027881;28;20497;-22
2021/04/29 06:38:34;;;;;;;14.20;7.25;;;;;;;13.62;62.05;100080.22;5027699;28;20029;-19
2021/04/29 06:41:00;;;;;;;13.80;7.07;;;;;;;13.98;61.02;100105.00;5027730;28;20025;-21
2021/04/29 06:43:25;;;;;;;12.82;6.65;;;;;;;14.14;60.18;100092.66;5027644;28;20075;-21
2021/04/29 06:45:51;;;;;;;12.95;7.70;;;;;;;13.83;62.77;100073.34;5028144;28;20027;-21
2021/04/29 06:48:16;;;;;;;13.35;7.00;;;;;;;13.79;62.23;100090.97;5027279;28;20049;-22
2021/04/29 06:50:42;;;;;;;12.98;6.80;;;;;;;14.52;60.56;100078.56;5027457;28;20036;-22
2021/04/29 06:53:07;;;;;;;13.77;7.32;;;;;;;14.33;59.81;100094.09;5026861;28;20025;-21
2021/04/29 06:55:33;;;;;;;13.50;6.97;;;;;;;14.60;60.64;100085.41;5027627;28;20128;-22
2021/04/29 06:57:58;;;;;;;11.48;6.07;;;;;;;14.42;59.30;100079.19;5027347;28;20069;-22
2021/04/29 07:00:25;;;;;;;10.15;6.53;;;;;;;14.43;61.69;100085.41;5027001;28;20029;-21
2021/04/29 07:02:51;;;;;;;16.10;6.57;;;;;;;14.61;58.70;100081.69;5027324;28;20037;-21
2021/04/29 07:05:16;;;;;;;12.45;6.78;;;;;;;14.17;60.43;100089.53;5027486;28;20457;-21
2021/04/29 07:07:42;;;;;;;13.00;6.75;;;;;;;14.25;62.21;100083.75;5027046;28;20512;-22
2021/04/29 07:10:08;;;;;;;13.32;7.15;;;;;;;14.57;61.39;100089.41;5025989;28;20033;-22
2021/04/29 07:12:33;;;;;;;11.00;7.07;;;;;;;15.36;58.57;100071.41;5027254;28;20029;-21
2021/04/29 07:14:59;;;;;;;11.23;6.50;;;;;;;15.46;59.05;100091.16;5027076;28;20033;-21
2021/04/29 07:17:24;;;;;;;13.73;6.45;;;;;;;15.57;57.63;100081.34;5027133;28;20037;-21
2021/04/29 07:19:50;;;;;;;15.50;8.13;;;;;;;15.45;56.50;100069.94;5026878;28;20091;-21
2021/04/29 07:22:15;;;;;;;10.98;6.03;;;;;;;15.20;57.38;100092.75;5027631;28;20037;-21
2021/04/29 07:24:43;;;;;;;13.02;6.28;;;;;;;15.36;57.83;100077.59;5027156;28;20032;-21
2021/04/29 07:27:08;;;;;;;20.08;12.85;;;;;;;15.57;59.12;100092.13;5027277;28;20029;-21
2021/04/29 07:29:34;;;;;;;11.57;7.20;;;;;;;15.81;57.04;100079.25;5027073;28;20494;-21
2021/04/29 07:32:00;;;;;;;9.82;5.95;;;;;;;15.71;59.12;100094.41;5027095;28;20123;-20
2021/04/29 07:34:25;;;;;;;11.23;6.43;;;;;;;15.76;56.96;100097.19;5027266;28;20033;-21
2021/04/29 07:36:51;;;;;;;9.18;5.60;;;;;;;15.84;55.79;100088.66;5026945;28;20030;-22
2021/04/29 07:39:16;;;;;;;13.48;6.15;;;;;;;16.03;56.50;100098.00;5026811;28;20034;-22
2021/04/29 07:41:42;;;;;;;9.40;5.85;;;;;;;16.33;54.31;100083.22;5027034;28;20041;-21
2021/04/29 07:44:08;;;;;;;9.98;5.80;;;;;;;16.25;56.04;100100.63;5026731;28;20109;-21
2021/04/29 07:46:34;;;;;;;10.00;6.13;;;;;;;16.33;55.44;100085.91;5026664;28;20040;-21
2021/04/29 07:49:00;;;;;;;13.32;5.85;;;;;;;16.25;55.89;100091.75;5026788;28;20053;-21
2021/04/29 07:51:25;;;;;;;10.75;6.15;;;;;;;16.21;55.34;100085.25;5026945;28;20120;-22
2021/04/29 07:53:51;;;;;;;10.85;6.00;;;;;;;16.26;56.29;100085.28;5026708;28;20034;-21
2021/04/29 07:56:16;;;;;;;10.63;7.03;;;;;;;15.94;57.79;100082.59;5027043;28;20478;-21
2021/04/29 07:58:42;;;;;;;10.95;6.72;;;;;;;15.80;56.39;100082.19;5026547;28;20044;-21
2021/04/29 08:01:08;;;;;;;14.38;6.97;;;;;;;15.99;55.04;100080.75;5026910;28;20037;-21
2021/04/29 08:03:33;;;;;;;13.68;6.28;;;;;;;16.23;54.35;100069.66;5027015;28;20044;-21
2021/04/29 08:05:59;;;;;;;12.50;7.13;;;;;;;16.23;56.13;100080.44;5026773;28;20025;-21
2021/04/29 08:08:24;;;;;;;11.25;6.43;;;;;;;16.31;55.28;100076.47;5026599;28;20068;-20
2021/04/29 08:10:50;;;;;;;11.40;6.80;;;;;;;16.48;54.18;100080.63;5026452;28;20038;-21
2021/04/29 08:13:16;;;;;;;10.90;7.35;;;;;;;16.82;54.41;100087.63;5026982;28;20030;-21
2021/04/29 08:15:41;;;;;;;12.55;7.72;;;;;;;16.89;55.04;100087.41;5026816;28;20493;-21
2021/04/29 08:18:07;;;;;;;14.52;7.35;;;;;;;17.12;53.32;100086.19;5028766;28;20038;-21
2021/04/29 08:20:33;;;;;;;11.57;7.07;;;;;;;17.33;52.99;100073.63;5030206;28;20048;-20
2021/04/29 08:22:58;;;;;;;11.95;7.43;;;;;;;17.34;52.49;100075.25;5030032;28;20048;-22
2021/04/29 08:25:24;;;;;;;13.60;8.00;;;;;;;16.84;56.56;100074.72;5030710;28;20040;-21
2021/04/29 08:27:50;;;;;;;12.60;7.60;;;;;;;17.05;54.70;100070.25;5030392;28;20486;-21
2021/04/29 08:30:16;;;;;;;12.95;7.70;;;;;;;17.55;54.20;100074.25;5030021;28;20505;-21
2021/04/29 08:32:41;;;;;;;16.25;7.70;;;;;;;17.78;52.44;100080.25;5030184;28;20095;-21
2021/04/29 08:35:08;;;;;;;11.38;8.13;;;;;;;17.73;52.57;100074.81;5028728;28;20506;-21
2021/04/29 08:37:34;;;;;;;12.55;8.02;;;;;;;17.80;53.12;100075.41;5029826;28;20041;-20
2021/04/29 08:40:00;;;;;;;11.55;7.65;;;;;;;17.70;50.87;100057.28;5030169;28;20498;-20
2021/04/29 08:42:28;;;;;;;13.95;7.43;;;;;;;18.06;52.37;100076.25;5029985;28;20036;-20
2021/04/29 08:44:53;;;;;;;;;;;;;;;17.83;51.32;100058.69;5029992;28;20044;-20
2021/04/29 08:47:19;;;;;;;10.77;7.93;;;;;;;17.93;52.00;100074.91;5029972;28;19909;-20
2021/04/29 08:49:45;;;;;;;12.02;7.25;;;;;;;18.67;50.10;100061.94;5029576;28;20049;-21
2021/04/29 08:52:10;;;;;;;10.82;7.03;;;;;;;19.26;48.83;100069.38;5029700;28;20065;-20
2021/04/29 08:54:38;;;;;;;13.93;7.53;;;;;;;18.62;52.03;100070.06;5028247;28;20080;-20
2021/04/29 08:57:04;;;;;;;12.00;6.90;;;;;;;18.54;50.07;100051.72;5029824;28;20041;-20
2021/04/29 08:59:30;;;;;;;11.40;7.47;;;;;;;18.62;50.61;100064.66;5029567;28;20056;-20
2021/04/29 09:01:56;;;;;;;9.90;7.10;;;;;;;18.68;50.63;100044.66;5029779;28;20458;-20
2021/04/29 09:04:21;;;;;;;10.82;7.60;;;;;;;19.19;49.76;100054.56;5028316;28;20040;-21
2021/04/29 09:06:47;;;;;;;8.70;6.05;;;;;;;19.23;49.44;100044.81;5029127;28;20034;-21
2021/04/29 09:09:13;;;;;;;9.68;6.15;;;;;;;19.30;49.31;100052.59;5029477;28;20072;-21
2021/04/29 09:11:52;;;;;;;9.07;5.57;;;;;;;19.77;49.02;100035.06;5029386;28;20064;-21
2021/04/29 09:14:38;;;;;;;11.52;6.05;;;;;;;19.93;47.02;100030.38;5029467;28;20033;-21
2021/04/29 09:17:04;;;;;;;14.02;6.22;;;;;;;19.83;48.28;100047.47;5029407;28;20056;-20
2021/04/29 09:19:32;;;;;;;11.38;5.82;;;;;;;19.51;49.78;100026.25;5027974;28;20035;-21
2021/04/29 09:21:57;;;;;;;;;;;;;;;19.73;48.67;100039.44;5029757;28;20087;-21
2021/04/29 09:24:37;;;;;;;12.40;5.65;;;;;;;20.36;47.03;100031.34;5029214;28;20742;-21
2021/04/29 09:27:18;;;;;;;8.98;5.93;;;;;;;20.56;46.28;100033.06;5029029;28;20120;-21
2021/04/29 09:29:59;;;;;;;9.70;5.97;;;;;;;20.26;46.94;100034.97;5028060;28;20052;-21
2021/04/29 09:32:29;;;;;;;9.80;6.38;;;;;;;20.18;48.16;100007.69;5029135;28;20099;-20
2021/04/29 09:34:55;;;;;;;10.00;6.38;;;;;;;20.31;46.38;100017.06;5028771;28;20113;-20
2021/04/29 09:37:27;;;;;;;10.02;5.90;;;;;;;20.51;45.52;100026.88;5029347;28;20139;-21
2021/04/29 09:39:52;;;;;;;10.15;6.18;;;;;;;21.06;44.78;100020.09;5028683;28;20029;-20
2021/04/29 09:42:37;;;;;;;10.43;6.30;;;;;;;20.82;44.97;100022.81;5028697;28;20037;-20
2021/04/29 09:45:19;;;;;;;10.60;7.05;;;;;;;20.44;47.54;100006.38;5029174;28;20028;-21
2021/04/29 09:48:05;;;;;;;10.15;6.18;;;;;;;19.90;47.71;100010.09;5029013;28;20031;-21
2021/04/29 09:50:36;;;;;;;10.80;6.20;;;;;;;20.23;49.52;100032.03;5028468;28;20478;-21
2021/04/29 09:53:08;;;;;;;10.65;6.18;;;;;;;20.56;48.13;100019.53;5028842;28;20065;-21
2021/04/29 09:55:35;;;;;;;10.55;7.22;;;;;;;20.55;46.87;100023.31;5029059;28;20195;-20
2021/04/29 09:58:15;;;;;;;11.00;7.18;;;;;;;20.85;47.05;100005.16;5028760;28;20512;-21
2021/04/29 10:00:42;;;;;;;10.57;7.47;;;;;;;20.85;46.67;99999.75;5028046;28;20060;-21
2021/04/29 10:03:08;;;;;;;12.82;7.22;;;;;;;20.91;45.89;100024.88;5028220;28;20029;-21
2021/04/29 10:05:38;;;;;;;10.45;6.88;;;;;;;20.79;46.52;100026.09;5028445;28;20040;-20
2021/04/29 10:08:05;;;;;;;10.98;7.30;;;;;;;21.02;46.20;100010.09;5028577;28;20509;-21
2021/04/29 10:10:32;;;;;;;11.00;6.80;;;;;;;21.44;47.14;99992.25;5028653;28;20033;-21
2021/04/29 10:12:59;;;;;;;13.43;7.10;;;;;;;21.74;44.09;100017.28;5028437;28;20037;-21
2021/04/29 10:15:25;;;;;;;13.52;8.00;;;;;;;21.66;45.50;100003.31;5027138;28;20044;-21
2021/04/29 10:17:50;;;;;;;11.38;7.57;;;;;;;21.48;45.62;100019.59;5026992;28;20033;-21
2021/04/29 10:20:16;;;;;;;11.27;7.38;;;;;;;21.39;45.75;100013.97;5010174;28;20029;-21
2021/04/29 10:22:42;;;;;;;12.68;8.00;;;;;;;21.71;45.34;100009.75;5027718;28;20087;-21
2021/04/29 10:25:08;;;;;;;12.27;7.50;;;;;;;22.31;44.14;100018.03;5027965;28;20029;-21
2021/04/29 10:27:33;;;;;;;12.35;7.32;;;;;;;22.62;43.03;100012.88;5027959;28;20036;-21
2021/04/29 10:30:05;;;;;;;10.48;7.13;;;;;;;22.72;43.78;100006.44;5027890;28;20033;-20
2021/04/29 10:32:33;;;;;;;11.60;7.40;;;;;;;22.63;44.03;99978.31;5027795;28;20400;-21
2021/04/29 10:34:58;;;;;;;11.73;6.97;;;;;;;23.02;43.08;99994.16;5027791;28;20460;-21
2021/04/29 10:37:26;;;;;;;34.58;21.38;;;;;;;23.18;42.07;100000.09;5026788;28;20033;-20
2021/04/29 10:39:56;;;;;;;10.93;7.15;;;;;;;23.79;42.75;99981.59;5027734;28;20041;-21
2021/04/29 10:42:23;;;;;;;11.88;6.32;;;;;;;23.64;42.40;99988.19;5027917;28;20021;-20
2021/04/29 10:44:51;;;;;;;10.20;6.75;;;;;;;24.01;41.38;99985.44;5026411;28;20378;-22
2021/04/29 10:47:27;;;;;;;12.57;6.80;;;;;;;24.45;39.00;99954.53;5027616;28;20871;-21
2021/04/29 10:49:53;;;;;;;11.90;6.60;;;;;;;24.06;40.39;99977.91;5027370;28;20049;-20
2021/04/29 10:52:18;;;;;;;10.93;6.22;;;;;;;24.03;40.30;99984.00;5027655;28;20029;-20
2021/04/29 10:54:48;;;;;;;10.65;6.40;;;;;;;23.96;40.22;99967.28;5027340;28;20029;-20
2021/04/29 10:57:16;;;;;;;11.48;6.00;;;;;;;23.59;39.83;99969.22;5027402;28;20031;-21
2021/04/29 10:59:47;;;;;;;10.30;6.47;;;;;;;23.75;41.87;99952.53;5027305;28;20140;-20
2021/04/29 11:02:31;;;;;;;8.82;5.75;;;;;;;24.57;39.53;99954.00;5027707;28;20026;-20
2021/04/29 11:04:56;;;;;;;13.32;6.82;;;;;;;24.38;40.18;99962.38;5027582;28;20033;-21
2021/04/29 11:07:23;;;;;;;8.70;6.88;;;;;;;24.25;39.38;99955.09;5026063;28;20121;-22
2021/04/29 11:10:03;;;;;;;11.57;6.85;;;;;;;24.27;39.60;99961.03;5027216;28;20030;-21
2021/04/29 11:12:47;;;;;;;10.70;7.05;;;;;;;25.04;38.85;99958.94;5027443;28;20025;-20
2021/04/29 11:15:38;;;;;;;9.70;7.13;;;;;;;24.94;38.80;99940.13;5027246;28;20029;-21
2021/04/29 11:18:14;;;;;;;11.55;6.63;;;;;;;24.64;38.73;99959.81;5026065;28;20818;-21
2021/04/29 11:20:48;;;;;;;12.35;7.18;;;;;;;24.14;39.55;99956.50;5025970;28;20041;-20